createdAt,value
2016-12-26T00:00:32.521Z,20.23
2016-12-26T00:01:13.031Z,20.2
2016-12-26T00:01:53.521Z,20.2
2016-12-26T00:02:34.035Z,20.22
2016-12-26T00:03:14.529Z,20.16
2016-12-26T00:03:55.029Z,20.2
2016-12-26T00:04:35.527Z,20.18
2016-12-26T00:05:16.029Z,20.22
2016-12-26T00:05:56.518Z,20.25
2016-12-26T00:06:37.020Z,20.23
2016-12-26T00:07:17.519Z,20.22
2016-12-26T00:07:58.031Z,20.23
2016-12-26T00:08:38.511Z,20.22
2016-12-26T00:09:19.001Z,20.2
2016-12-26T00:09:59.493Z,20.27
2016-12-26T00:10:39.991Z,20.15
2016-12-26T00:11:20.484Z,20.25
2016-12-26T00:12:00.978Z,20.22
2016-12-26T00:12:41.468Z,20.22
2016-12-26T00:13:21.975Z,20.23
2016-12-26T00:14:02.468Z,20.22
2016-12-26T00:14:42.963Z,20.2
2016-12-26T00:15:23.465Z,20.22
2016-12-26T00:16:03.942Z,20.22
2016-12-26T00:16:44.433Z,20.2
2016-12-26T00:17:24.925Z,20.22
2016-12-26T00:18:05.417Z,20.27
2016-12-26T00:18:45.909Z,20.19
2016-12-26T00:19:26.416Z,20.29
2016-12-26T00:20:06.915Z,20.2
2016-12-26T00:20:47.410Z,20.25
2016-12-26T00:21:27.910Z,20.25
2016-12-26T00:22:08.405Z,20.26
2016-12-26T00:22:48.912Z,20.19
2016-12-26T00:23:29.394Z,20.23
2016-12-26T00:24:09.886Z,20.2
2016-12-26T00:24:50.377Z,20.25
2016-12-26T00:25:30.880Z,20.22
2016-12-26T00:26:11.365Z,20.19
2016-12-26T00:26:51.859Z,20.23
2016-12-26T00:27:32.359Z,20.23
2016-12-26T00:28:12.856Z,20.22
2016-12-26T00:28:53.348Z,20.23
2016-12-26T00:29:33.847Z,20.22
2016-12-26T00:30:14.362Z,20.2
2016-12-26T00:30:54.855Z,20.23
2016-12-26T00:31:35.353Z,20.25
2016-12-26T00:32:15.848Z,20.25
2016-12-26T00:32:56.354Z,20.22
2016-12-26T00:33:36.852Z,20.2
2016-12-26T00:34:17.352Z,20.26
2016-12-26T00:34:57.851Z,20.25
2016-12-26T00:35:38.349Z,20.22
2016-12-26T00:36:18.840Z,20.2
2016-12-26T00:36:59.338Z,20.22
2016-12-26T00:37:39.839Z,20.23
2016-12-26T00:38:20.348Z,20.2
2016-12-26T00:39:00.840Z,20.19
2016-12-26T00:39:41.347Z,20.29
2016-12-26T00:40:21.845Z,20.22
2016-12-26T00:41:02.341Z,20.2
2016-12-26T00:41:42.843Z,20.12
2016-12-26T00:42:23.341Z,20.25
2016-12-26T00:43:03.827Z,20.22
2016-12-26T00:43:44.336Z,20.22
2016-12-26T00:44:24.842Z,20.2
2016-12-26T00:45:05.332Z,20.23
2016-12-26T00:45:45.823Z,20.19
2016-12-26T00:46:26.365Z,20.25
2016-12-26T00:47:06.857Z,20.22
2016-12-26T00:47:47.351Z,20.23
2016-12-26T00:48:27.897Z,20.26
2016-12-26T00:49:08.407Z,20.27
2016-12-26T00:49:48.881Z,20.22
2016-12-26T00:50:29.388Z,20.23
2016-12-26T00:51:09.884Z,20.23
2016-12-26T00:51:50.373Z,20.27
2016-12-26T00:52:30.859Z,20.23
2016-12-26T00:53:11.377Z,20.25
2016-12-26T00:53:51.884Z,20.22
2016-12-26T00:54:32.368Z,20.23
2016-12-26T00:55:12.855Z,20.26
2016-12-26T00:55:53.349Z,20.23
2016-12-26T00:56:33.853Z,20.2
2016-12-26T00:57:14.348Z,20.22
2016-12-26T00:57:54.839Z,20.22
2016-12-26T00:58:35.326Z,20.22
2016-12-26T00:59:15.819Z,20.25
2016-12-26T00:59:56.326Z,20.2
2016-12-26T01:00:36.819Z,20.23
2016-12-26T01:01:17.320Z,20.26
2016-12-26T01:01:57.821Z,20.26
2016-12-26T01:02:38.317Z,20.26
2016-12-26T01:03:18.821Z,20.2
2016-12-26T01:03:59.323Z,20.2
2016-12-26T01:04:39.807Z,20.2
2016-12-26T01:05:20.464Z,20.23
2016-12-26T01:06:00.957Z,20.23
2016-12-26T01:06:41.473Z,20.29
2016-12-26T01:07:21.969Z,20.26
2016-12-26T01:08:02.457Z,20.2
2016-12-26T01:08:42.973Z,20.27
2016-12-26T01:09:23.471Z,20.23
2016-12-26T01:10:03.968Z,20.22
2016-12-26T01:10:44.455Z,20.27
2016-12-26T01:11:24.943Z,20.25
2016-12-26T01:12:05.436Z,20.29
2016-12-26T01:12:45.933Z,20.25
2016-12-26T01:13:26.419Z,20.29
2016-12-26T01:14:06.918Z,20.3
2016-12-26T01:14:47.413Z,20.25
2016-12-26T01:15:27.906Z,20.19
2016-12-26T01:16:08.420Z,20.19
2016-12-26T01:16:48.914Z,20.22
2016-12-26T01:17:29.411Z,20.23
2016-12-26T01:18:09.913Z,20.22
2016-12-26T01:18:50.410Z,20.23
2016-12-26T01:19:30.895Z,20.27
2016-12-26T01:20:11.385Z,20.22
2016-12-26T01:20:51.869Z,20.26
2016-12-26T01:21:32.372Z,20.3
2016-12-26T01:22:12.864Z,20.25
2016-12-26T01:22:53.379Z,20.22
2016-12-26T01:23:33.861Z,20.23
2016-12-26T01:24:14.358Z,20.29
2016-12-26T01:24:54.855Z,20.3
2016-12-26T01:25:35.757Z,20.25
2016-12-26T01:26:16.264Z,20.25
2016-12-26T01:26:56.764Z,20.23
2016-12-26T01:27:37.260Z,20.32
2016-12-26T01:28:17.755Z,20.26
2016-12-26T01:28:58.259Z,20.26
2016-12-26T01:29:38.748Z,20.26
2016-12-26T01:30:19.251Z,20.22
2016-12-26T01:30:59.744Z,20.25
2016-12-26T01:31:40.252Z,20.25
2016-12-26T01:32:20.747Z,20.25
2016-12-26T01:33:01.248Z,20.23
2016-12-26T01:33:41.745Z,20.2
2016-12-26T01:34:22.246Z,20.25
2016-12-26T01:35:02.748Z,20.26
2016-12-26T01:35:43.245Z,20.26
2016-12-26T01:36:23.744Z,20.26
2016-12-26T01:37:04.247Z,20.26
2016-12-26T01:37:44.745Z,20.26
2016-12-26T01:38:25.254Z,20.26
2016-12-26T01:39:05.743Z,20.26
2016-12-26T01:39:46.253Z,20.23
2016-12-26T01:40:26.746Z,20.26
2016-12-26T01:41:07.245Z,20.25
2016-12-26T01:41:47.736Z,20.2
2016-12-26T01:42:28.246Z,20.23
2016-12-26T01:43:08.739Z,20.26
2016-12-26T01:43:49.239Z,20.32
2016-12-26T01:44:29.738Z,20.25
2016-12-26T01:45:10.246Z,20.27
2016-12-26T01:45:50.744Z,20.25
2016-12-26T01:46:31.235Z,20.23
2016-12-26T01:47:11.731Z,20.25
2016-12-26T01:47:52.233Z,20.22
2016-12-26T01:48:32.732Z,20.26
2016-12-26T01:49:13.243Z,20.26
2016-12-26T01:49:53.729Z,20.26
2016-12-26T01:50:34.231Z,20.25
2016-12-26T01:51:14.734Z,20.25
2016-12-26T01:51:55.237Z,20.29
2016-12-26T01:52:35.730Z,20.26
2016-12-26T01:53:16.241Z,20.26
2016-12-26T01:53:56.733Z,20.29
2016-12-26T01:54:37.238Z,20.29
2016-12-26T01:55:17.720Z,20.23
2016-12-26T01:55:58.209Z,20.27
2016-12-26T01:56:38.694Z,20.25
2016-12-26T01:57:19.190Z,20.29
2016-12-26T01:57:59.680Z,20.26
2016-12-26T01:58:40.172Z,20.26
2016-12-26T01:59:20.665Z,20.27
2016-12-26T02:00:01.170Z,20.29
2016-12-26T02:00:41.666Z,20.25
2016-12-26T02:01:22.181Z,20.27
2016-12-26T02:02:02.675Z,20.2
2016-12-26T02:02:43.169Z,20.23
2016-12-26T02:03:23.674Z,20.25
2016-12-26T02:04:04.167Z,20.23
2016-12-26T02:04:44.654Z,20.22
2016-12-26T02:05:25.138Z,20.27
2016-12-26T02:06:05.652Z,20.26
2016-12-26T02:06:46.144Z,20.29
2016-12-26T02:07:26.646Z,20.26
2016-12-26T02:08:07.135Z,20.32
2016-12-26T02:08:47.644Z,20.26
2016-12-26T02:09:28.127Z,20.23
2016-12-26T02:10:08.613Z,20.27
2016-12-26T02:10:49.120Z,20.27
2016-12-26T02:11:29.608Z,20.26
2016-12-26T02:12:10.093Z,20.27
2016-12-26T02:12:50.587Z,20.26
2016-12-26T02:13:31.085Z,20.29
2016-12-26T02:14:11.574Z,20.26
2016-12-26T02:14:52.067Z,20.26
2016-12-26T02:15:32.562Z,20.29
2016-12-26T02:16:13.062Z,20.27
2016-12-26T02:16:53.553Z,20.26
2016-12-26T02:17:34.035Z,20.3
2016-12-26T02:18:14.531Z,20.22
2016-12-26T02:18:55.018Z,20.27
2016-12-26T02:19:35.516Z,20.3
2016-12-26T02:20:16.008Z,20.27
2016-12-26T02:20:56.500Z,20.26
2016-12-26T02:21:37.004Z,20.27
2016-12-26T02:22:17.510Z,20.27
2016-12-26T02:22:58.005Z,20.29
2016-12-26T02:23:38.506Z,20.26
2016-12-26T02:24:19.006Z,20.29
2016-12-26T02:24:59.493Z,20.25
2016-12-26T02:25:39.984Z,20.2
2016-12-26T02:26:20.729Z,20.34
2016-12-26T02:27:58.189Z,20.35
2016-12-26T02:28:38.686Z,20.23
2016-12-26T02:29:19.178Z,20.35
2016-12-26T02:29:59.665Z,20.29
2016-12-26T02:30:40.159Z,20.29
2016-12-26T02:31:20.661Z,20.26
2016-12-26T02:32:01.144Z,20.26
2016-12-26T02:32:41.639Z,20.27
2016-12-26T02:33:22.132Z,20.34
2016-12-26T02:34:02.627Z,20.3
2016-12-26T02:34:43.119Z,20.32
2016-12-26T02:35:23.631Z,20.29
2016-12-26T02:36:04.133Z,20.29
2016-12-26T02:36:44.824Z,20.27
2016-12-26T02:37:25.309Z,20.22
2016-12-26T02:38:05.789Z,20.26
2016-12-26T02:38:46.284Z,20.34
2016-12-26T02:39:26.779Z,20.37
2016-12-26T02:40:07.275Z,20.29
2016-12-26T02:40:47.781Z,20.3
2016-12-26T02:41:28.277Z,20.29
2016-12-26T02:42:08.781Z,20.27
2016-12-26T02:42:49.266Z,20.29
2016-12-26T02:43:29.755Z,20.29
2016-12-26T02:44:10.235Z,20.27
2016-12-26T02:44:50.723Z,20.22
2016-12-26T02:45:31.226Z,20.26
2016-12-26T02:46:11.725Z,20.23
2016-12-26T02:46:52.226Z,20.26
2016-12-26T02:47:32.706Z,20.22
2016-12-26T02:48:13.196Z,20.29
2016-12-26T02:48:53.678Z,20.32
2016-12-26T02:49:34.171Z,20.35
2016-12-26T02:50:14.664Z,20.3
2016-12-26T02:50:55.161Z,20.26
2016-12-26T02:51:35.663Z,20.27
2016-12-26T02:52:16.152Z,20.3
2016-12-26T02:52:56.640Z,20.27
2016-12-26T02:53:37.123Z,20.27
2016-12-26T02:54:17.619Z,20.2
2016-12-26T02:54:58.114Z,20.37
2016-12-26T02:55:38.610Z,20.35
2016-12-26T02:56:19.111Z,20.26
2016-12-26T02:56:59.601Z,20.29
2016-12-26T02:57:40.113Z,20.29
2016-12-26T02:58:20.614Z,20.35
2016-12-26T02:59:01.111Z,20.32
2016-12-26T02:59:41.597Z,20.34
2016-12-26T03:00:22.107Z,20.32
2016-12-26T03:01:02.590Z,20.2
2016-12-26T03:01:43.079Z,20.32
2016-12-26T03:02:23.569Z,20.22
2016-12-26T03:03:04.108Z,20.22
2016-12-26T03:03:44.603Z,20.26
2016-12-26T03:04:25.099Z,20.3
2016-12-26T03:06:37.865Z,20.35
2016-12-26T03:07:18.536Z,20.26
2016-12-26T03:07:59.028Z,20.3
2016-12-26T03:08:39.523Z,20.27
2016-12-26T03:09:20.036Z,20.3
2016-12-26T03:10:00.539Z,20.29
2016-12-26T03:10:41.018Z,20.3
2016-12-26T03:11:21.514Z,20.22
2016-12-26T03:12:02.000Z,20.3
2016-12-26T03:12:42.487Z,20.23
2016-12-26T03:13:22.983Z,20.29
2016-12-26T03:14:03.463Z,20.26
2016-12-26T03:14:43.952Z,20.25
2016-12-26T03:15:24.438Z,20.29
2016-12-26T03:16:04.930Z,20.35
2016-12-26T03:16:45.431Z,20.29
2016-12-26T03:18:38.077Z,20.26
2016-12-26T03:19:18.571Z,20.32
2016-12-26T03:19:59.066Z,20.34
2016-12-26T03:20:39.549Z,20.29
2016-12-26T03:21:20.028Z,20.25
2016-12-26T03:22:00.517Z,20.26
2016-12-26T03:22:40.998Z,20.27
2016-12-26T03:23:21.490Z,20.29
2016-12-26T03:24:02.011Z,20.26
2016-12-26T03:24:42.507Z,20.35
2016-12-26T03:25:22.993Z,20.26
2016-12-26T03:26:03.491Z,20.25
2016-12-26T03:26:43.989Z,20.3
2016-12-26T03:27:24.483Z,20.2
2016-12-26T03:28:04.987Z,20.29
2016-12-26T03:28:45.509Z,20.3
2016-12-26T03:29:25.986Z,20.26
2016-12-26T03:30:06.476Z,20.3
2016-12-26T03:30:46.959Z,20.34
2016-12-26T03:31:27.452Z,20.34
2016-12-26T03:32:07.958Z,20.3
2016-12-26T03:32:48.483Z,20.3
2016-12-26T03:33:28.979Z,20.29
2016-12-26T03:34:09.472Z,20.32
2016-12-26T03:34:49.968Z,20.3
2016-12-26T03:35:30.452Z,20.32
2016-12-26T03:36:10.948Z,20.29
2016-12-26T03:36:51.428Z,20.27
2016-12-26T03:37:31.919Z,20.27
2016-12-26T03:38:12.422Z,20.27
2016-12-26T03:38:52.926Z,20.32
2016-12-26T03:39:33.427Z,20.25
2016-12-26T03:40:13.915Z,20.32
2016-12-26T03:40:54.417Z,20.34
2016-12-26T03:41:34.898Z,20.29
2016-12-26T03:42:15.391Z,20.29
2016-12-26T03:42:55.868Z,20.26
2016-12-26T03:43:36.362Z,20.3
2016-12-26T03:44:16.874Z,20.27
2016-12-26T03:44:57.371Z,20.27
2016-12-26T03:45:37.868Z,20.27
2016-12-26T03:46:18.353Z,20.22
2016-12-26T03:46:58.850Z,20.27
2016-12-26T03:47:39.323Z,20.27
2016-12-26T03:48:19.814Z,20.32
2016-12-26T03:49:00.311Z,20.27
2016-12-26T03:49:40.800Z,20.22
2016-12-26T03:50:21.394Z,20.3
2016-12-26T03:51:01.887Z,20.26
2016-12-26T03:51:42.388Z,20.26
2016-12-26T03:52:22.877Z,20.32
2016-12-26T03:53:03.387Z,20.27
2016-12-26T03:53:43.872Z,20.3
2016-12-26T03:54:24.363Z,20.25
2016-12-26T03:55:04.861Z,20.25
2016-12-26T03:55:45.358Z,20.25
2016-12-26T03:56:25.864Z,20.25
2016-12-26T03:57:06.358Z,20.26
2016-12-26T03:57:47.103Z,20.26
2016-12-26T03:58:27.614Z,20.27
2016-12-26T03:59:08.103Z,20.29
2016-12-26T03:59:48.587Z,20.29
2016-12-26T04:00:29.071Z,20.27
2016-12-26T04:01:09.566Z,20.27
2016-12-26T04:01:50.060Z,20.22
2016-12-26T04:02:30.552Z,20.3
2016-12-26T04:03:11.062Z,20.27
2016-12-26T04:03:51.545Z,20.27
2016-12-26T04:04:32.032Z,20.27
2016-12-26T04:05:12.511Z,20.37
2016-12-26T04:05:53.001Z,20.32
2016-12-26T04:06:33.510Z,20.29
2016-12-26T04:07:13.994Z,20.27
2016-12-26T04:07:54.478Z,20.25
2016-12-26T04:08:34.976Z,20.25
2016-12-26T04:09:15.469Z,20.34
2016-12-26T04:09:55.950Z,20.25
2016-12-26T04:10:36.447Z,20.27
2016-12-26T04:11:16.944Z,20.34
2016-12-26T04:11:57.426Z,20.34
2016-12-26T04:12:37.920Z,20.22
2016-12-26T04:13:18.409Z,20.3
2016-12-26T04:13:58.919Z,20.25
2016-12-26T04:14:39.407Z,20.3
2016-12-26T04:15:19.898Z,20.29
2016-12-26T04:16:00.391Z,20.32
2016-12-26T04:16:40.891Z,20.34
2016-12-26T04:17:21.391Z,20.3
2016-12-26T04:18:01.885Z,20.29
2016-12-26T04:18:42.389Z,20.3
2016-12-26T04:19:22.889Z,20.29
2016-12-26T04:20:03.386Z,20.3
2016-12-26T04:20:43.892Z,20.25
2016-12-26T04:21:24.386Z,20.27
2016-12-26T04:22:04.872Z,20.3
2016-12-26T04:22:45.465Z,20.29
2016-12-26T04:23:26.250Z,20.32
2016-12-26T04:24:06.736Z,20.37
2016-12-26T04:24:47.227Z,20.29
2016-12-26T04:25:27.710Z,20.26
2016-12-26T04:26:08.218Z,20.27
2016-12-26T04:26:48.713Z,20.27
2016-12-26T04:27:29.212Z,20.38
2016-12-26T04:28:09.691Z,20.38
2016-12-26T04:28:50.182Z,20.38
2016-12-26T04:29:30.673Z,20.26
2016-12-26T04:30:11.180Z,20.25
2016-12-26T04:30:51.687Z,20.27
2016-12-26T04:31:32.183Z,20.34
2016-12-26T04:32:12.691Z,20.32
2016-12-26T04:32:53.182Z,20.32
2016-12-26T04:33:33.682Z,20.34
2016-12-26T04:34:14.167Z,20.32
2016-12-26T04:34:54.660Z,20.32
2016-12-26T04:35:35.152Z,20.37
2016-12-26T04:36:15.656Z,20.38
2016-12-26T04:36:56.141Z,20.26
2016-12-26T04:37:36.635Z,20.3
2016-12-26T04:38:17.128Z,20.34
2016-12-26T04:38:57.625Z,20.32
2016-12-26T04:39:38.129Z,20.2
2016-12-26T04:40:18.625Z,20.32
2016-12-26T04:40:59.123Z,20.27
2016-12-26T04:41:39.615Z,20.23
2016-12-26T04:42:20.102Z,20.27
2016-12-26T04:43:00.597Z,20.27
2016-12-26T04:43:41.098Z,20.3
2016-12-26T04:44:21.578Z,20.32
2016-12-26T04:45:02.072Z,20.32
2016-12-26T04:45:42.571Z,20.26
2016-12-26T04:46:23.067Z,20.32
2016-12-26T04:47:03.569Z,20.2
2016-12-26T04:47:44.066Z,20.2
2016-12-26T04:48:24.572Z,20.32
2016-12-26T04:49:05.061Z,20.32
2016-12-26T04:49:45.560Z,20.29
2016-12-26T04:50:26.066Z,20.3
2016-12-26T04:51:06.570Z,20.29
2016-12-26T04:51:47.054Z,20.32
2016-12-26T04:52:27.562Z,20.37
2016-12-26T04:53:08.046Z,20.22
2016-12-26T04:53:48.538Z,20.3
2016-12-26T04:54:29.026Z,20.34
2016-12-26T04:55:09.516Z,20.32
2016-12-26T04:55:50.011Z,20.29
2016-12-26T04:56:30.501Z,20.2
2016-12-26T04:57:11.003Z,20.29
2016-12-26T04:57:51.501Z,20.27
2016-12-26T04:58:32.000Z,20.27
2016-12-26T04:59:12.491Z,20.27
2016-12-26T04:59:52.982Z,20.32
2016-12-26T05:00:33.477Z,20.34
2016-12-26T05:01:13.976Z,20.22
2016-12-26T05:01:54.456Z,20.3
2016-12-26T05:02:34.948Z,20.34
2016-12-26T05:03:15.431Z,20.37
2016-12-26T05:03:55.922Z,20.22
2016-12-26T05:04:36.419Z,20.27
2016-12-26T05:05:16.900Z,20.3
2016-12-26T05:05:57.387Z,20.3
2016-12-26T05:06:37.876Z,20.29
2016-12-26T05:07:18.371Z,20.3
2016-12-26T05:07:58.869Z,20.34
2016-12-26T05:08:39.355Z,20.32
2016-12-26T05:09:19.985Z,20.3
2016-12-26T05:10:00.475Z,20.29
2016-12-26T05:10:40.973Z,20.35
2016-12-26T05:11:21.458Z,20.26
2016-12-26T05:12:01.952Z,20.25
2016-12-26T05:12:42.447Z,20.22
2016-12-26T05:13:22.935Z,20.27
2016-12-26T05:14:03.444Z,20.26
2016-12-26T05:14:43.939Z,20.3
2016-12-26T05:15:24.446Z,20.32
2016-12-26T05:16:04.941Z,20.29
2016-12-26T05:16:45.445Z,20.29
2016-12-26T05:17:25.959Z,20.26
2016-12-26T05:18:06.450Z,20.32
2016-12-26T05:18:46.939Z,20.35
2016-12-26T05:19:27.436Z,20.32
2016-12-26T05:20:07.929Z,20.37
2016-12-26T05:20:48.436Z,20.32
2016-12-26T05:21:28.935Z,20.29
2016-12-26T05:22:09.438Z,20.32
2016-12-26T05:22:49.931Z,20.32
2016-12-26T05:23:30.419Z,20.2
2016-12-26T05:24:10.939Z,20.22
2016-12-26T05:24:51.433Z,20.35
2016-12-26T05:25:31.930Z,20.3
2016-12-26T05:26:12.426Z,20.29
2016-12-26T05:26:52.909Z,20.27
2016-12-26T05:28:40.512Z,20.41
2016-12-26T05:29:21.005Z,20.34
2016-12-26T05:30:01.505Z,20.27
2016-12-26T05:30:42.001Z,20.27
2016-12-26T05:31:22.504Z,20.32
2016-12-26T05:32:02.978Z,20.35
2016-12-26T05:32:43.480Z,20.3
2016-12-26T05:33:23.963Z,20.29
2016-12-26T05:34:04.452Z,20.32
2016-12-26T05:34:44.946Z,20.27
2016-12-26T05:35:25.451Z,20.27
2016-12-26T05:36:05.946Z,20.27
2016-12-26T05:36:46.438Z,20.29
2016-12-26T05:37:26.921Z,20.3
2016-12-26T05:38:07.401Z,20.3
2016-12-26T05:38:47.899Z,20.37
2016-12-26T05:39:28.391Z,20.25
2016-12-26T05:40:08.878Z,20.27
2016-12-26T05:40:49.367Z,20.34
2016-12-26T05:41:29.859Z,20.26
2016-12-26T05:42:10.367Z,20.26
2016-12-26T05:42:50.857Z,20.26
2016-12-26T05:43:31.364Z,20.3
2016-12-26T05:44:11.850Z,20.32
2016-12-26T05:44:52.362Z,20.34
2016-12-26T05:45:32.858Z,20.32
2016-12-26T05:46:13.359Z,20.3
2016-12-26T05:46:53.844Z,20.34
2016-12-26T05:47:34.442Z,20.34
2016-12-26T05:48:14.937Z,20.25
2016-12-26T05:48:55.433Z,20.27
2016-12-26T05:49:35.937Z,20.27
2016-12-26T05:50:16.423Z,20.3
2016-12-26T05:50:56.934Z,20.3
2016-12-26T05:51:37.426Z,20.37
2016-12-26T05:52:17.910Z,20.29
2016-12-26T05:52:59.188Z,20.32
2016-12-26T05:53:38.902Z,20.25
2016-12-26T05:54:19.381Z,20.26
2016-12-26T05:54:59.867Z,20.26
2016-12-26T05:55:40.354Z,20.35
2016-12-26T05:56:20.851Z,20.23
2016-12-26T05:57:01.349Z,20.29
2016-12-26T05:57:41.828Z,20.32
2016-12-26T05:58:22.307Z,20.26
2016-12-26T05:59:02.800Z,20.27
2016-12-26T05:59:43.284Z,20.27
2016-12-26T06:00:23.796Z,20.35
2016-12-26T06:01:04.276Z,20.19
2016-12-26T06:01:44.757Z,20.23
2016-12-26T06:02:25.245Z,20.29
2016-12-26T06:03:05.729Z,20.32
2016-12-26T06:03:46.223Z,20.34
2016-12-26T06:04:26.715Z,20.23
2016-12-26T06:05:07.445Z,20.3
2016-12-26T06:05:47.941Z,20.23
2016-12-26T06:06:28.437Z,20.35
2016-12-26T06:07:08.922Z,20.27
2016-12-26T06:07:49.406Z,20.26
2016-12-26T06:08:29.895Z,20.37
2016-12-26T06:09:10.390Z,20.29
2016-12-26T06:09:50.884Z,20.32
2016-12-26T06:10:31.378Z,20.25
2016-12-26T06:11:11.869Z,20.26
2016-12-26T06:11:52.365Z,20.29
2016-12-26T06:12:32.860Z,20.22
2016-12-26T06:13:13.366Z,20.29
2016-12-26T06:13:53.880Z,20.38
2016-12-26T06:14:34.366Z,20.3
2016-12-26T06:15:14.861Z,20.25
2016-12-26T06:15:55.362Z,20.32
2016-12-26T06:16:35.845Z,20.32
2016-12-26T06:17:16.353Z,20.23
2016-12-26T06:17:56.860Z,20.34
2016-12-26T06:18:37.355Z,20.27
2016-12-26T06:19:17.856Z,20.34
2016-12-26T06:19:58.356Z,20.25
2016-12-26T06:20:38.847Z,20.35
2016-12-26T06:21:19.351Z,20.29
2016-12-26T06:21:59.853Z,20.34
2016-12-26T06:22:40.353Z,20.34
2016-12-26T06:23:20.849Z,20.34
2016-12-26T06:24:01.352Z,20.38
2016-12-26T06:24:41.845Z,20.35
2016-12-26T06:25:22.348Z,20.32
2016-12-26T06:26:02.839Z,20.32
2016-12-26T06:26:43.327Z,20.34
2016-12-26T06:27:23.817Z,20.22
2016-12-26T06:28:04.321Z,20.25
2016-12-26T06:28:44.812Z,20.32
2016-12-26T06:29:25.303Z,20.23
2016-12-26T06:30:05.796Z,20.34
2016-12-26T06:30:46.519Z,20.34
2016-12-26T06:31:27.012Z,20.34
2016-12-26T06:32:07.523Z,20.3
2016-12-26T06:32:48.014Z,20.29
2016-12-26T06:33:28.503Z,20.25
2016-12-26T06:34:08.998Z,20.29
2016-12-26T06:34:49.476Z,20.34
2016-12-26T06:35:29.966Z,20.34
2016-12-26T06:36:10.449Z,20.35
2016-12-26T06:36:50.944Z,20.29
2016-12-26T06:37:31.442Z,20.25
2016-12-26T06:38:11.938Z,20.29
2016-12-26T06:38:52.446Z,20.32
2016-12-26T06:39:32.947Z,20.27
2016-12-26T06:40:13.438Z,20.34
2016-12-26T06:40:53.938Z,20.3
2016-12-26T06:41:34.440Z,20.22
2016-12-26T06:42:14.937Z,20.23
2016-12-26T06:42:55.442Z,20.32
2016-12-26T06:43:35.973Z,20.34
2016-12-26T06:44:16.459Z,20.3
2016-12-26T06:44:56.953Z,20.37
2016-12-26T06:45:37.436Z,20.32
2016-12-26T06:46:17.927Z,20.23
2016-12-26T06:46:58.430Z,20.34
2016-12-26T06:47:38.925Z,20.3
2016-12-26T06:48:19.433Z,20.35
2016-12-26T06:48:59.926Z,20.32
2016-12-26T06:49:40.428Z,20.34
2016-12-26T06:50:20.917Z,20.3
2016-12-26T06:51:01.408Z,20.35
2016-12-26T06:51:41.902Z,20.4
2016-12-26T06:52:22.395Z,20.3
2016-12-26T06:53:02.877Z,20.37
2016-12-26T06:53:43.370Z,20.32
2016-12-26T06:54:23.868Z,20.32
2016-12-26T06:56:21.530Z,20.38
2016-12-26T06:57:02.036Z,20.38
2016-12-26T06:57:42.527Z,20.38
2016-12-26T06:58:23.057Z,20.37
2016-12-26T06:59:03.540Z,20.25
2016-12-26T06:59:44.033Z,20.35
2016-12-26T07:00:24.530Z,20.35
2016-12-26T07:01:05.020Z,20.37
2016-12-26T07:01:45.502Z,20.4
2016-12-26T07:02:25.985Z,20.3
2016-12-26T07:03:06.477Z,20.23
2016-12-26T07:03:46.972Z,20.32
2016-12-26T07:04:27.469Z,20.34
2016-12-26T07:05:07.953Z,20.25
2016-12-26T07:05:48.447Z,20.32
2016-12-26T07:06:28.944Z,20.34
2016-12-26T07:07:09.435Z,20.27
2016-12-26T07:07:49.926Z,20.34
2016-12-26T07:08:30.419Z,20.3
2016-12-26T07:09:10.905Z,20.38
2016-12-26T07:09:51.418Z,20.37
2016-12-26T07:10:31.916Z,20.37
2016-12-26T07:11:12.419Z,20.38
2016-12-26T07:11:52.901Z,20.38
2016-12-26T07:12:33.392Z,20.34
2016-12-26T07:13:13.889Z,20.38
2016-12-26T07:13:54.387Z,20.37
2016-12-26T07:14:34.866Z,20.37
2016-12-26T07:15:15.358Z,20.38
2016-12-26T07:15:55.864Z,20.4
2016-12-26T07:16:36.358Z,20.41
2016-12-26T07:17:16.864Z,20.34
2016-12-26T07:17:57.349Z,20.37
2016-12-26T07:18:37.840Z,20.37
2016-12-26T07:19:18.323Z,20.34
2016-12-26T07:19:58.825Z,20.37
2016-12-26T07:20:39.307Z,20.38
2016-12-26T07:21:19.800Z,20.37
2016-12-26T07:22:00.298Z,20.34
2016-12-26T07:22:40.800Z,20.37
2016-12-26T07:23:21.295Z,20.32
2016-12-26T07:24:01.804Z,20.4
2016-12-26T07:24:42.300Z,20.38
2016-12-26T07:25:22.797Z,20.4
2016-12-26T07:26:03.607Z,20.38
2016-12-26T07:26:43.978Z,20.4
2016-12-26T07:27:24.475Z,20.41
2016-12-26T07:28:04.964Z,20.34
2016-12-26T07:28:45.562Z,20.38
2016-12-26T07:29:26.053Z,20.4
2016-12-26T07:30:06.542Z,20.38
2016-12-26T07:30:47.030Z,20.4
2016-12-26T07:31:27.526Z,20.41
2016-12-26T07:32:08.023Z,20.4
2016-12-26T07:32:48.509Z,20.42
2016-12-26T07:33:29.003Z,20.34
2016-12-26T07:34:09.489Z,20.34
2016-12-26T07:34:49.979Z,20.41
2016-12-26T07:35:30.473Z,20.38
2016-12-26T07:36:10.954Z,20.38
2016-12-26T07:36:51.448Z,20.32
2016-12-26T07:37:31.943Z,20.4
2016-12-26T07:38:12.442Z,20.38
2016-12-26T07:38:52.944Z,20.38
2016-12-26T07:39:33.431Z,20.4
2016-12-26T07:40:13.919Z,20.41
2016-12-26T07:40:54.413Z,20.4
2016-12-26T07:41:34.908Z,20.42
2016-12-26T07:42:15.393Z,20.41
2016-12-26T07:42:55.892Z,20.37
2016-12-26T07:43:36.386Z,20.42
2016-12-26T07:44:16.884Z,20.37
2016-12-26T07:44:57.384Z,20.34
2016-12-26T07:45:37.875Z,20.41
2016-12-26T07:46:18.361Z,20.38
2016-12-26T07:46:58.856Z,20.35
2016-12-26T07:47:39.351Z,20.37
2016-12-26T07:48:19.836Z,20.34
2016-12-26T07:49:00.332Z,20.35
2016-12-26T07:49:40.834Z,20.35
2016-12-26T07:50:21.332Z,20.41
2016-12-26T07:51:01.830Z,20.41
2016-12-26T07:51:42.508Z,20.4
2016-12-26T07:52:22.999Z,20.44
2016-12-26T07:53:03.486Z,20.41
2016-12-26T07:53:43.983Z,20.44
2016-12-26T07:54:24.481Z,20.46
2016-12-26T07:55:04.970Z,20.46
2016-12-26T07:55:45.457Z,20.35
2016-12-26T07:56:25.952Z,20.4
2016-12-26T07:57:06.453Z,20.38
2016-12-26T07:57:46.935Z,20.38
2016-12-26T07:58:27.431Z,20.32
2016-12-26T07:59:07.923Z,20.46
2016-12-26T07:59:48.408Z,20.4
2016-12-26T08:00:28.890Z,20.41
2016-12-26T08:01:09.382Z,20.42
2016-12-26T08:01:49.888Z,20.44
2016-12-26T08:02:30.375Z,20.48
2016-12-26T08:03:10.869Z,20.46
2016-12-26T08:03:51.371Z,20.44
2016-12-26T08:04:31.854Z,20.46
2016-12-26T08:05:12.345Z,20.53
2016-12-26T08:05:52.828Z,20.4
2016-12-26T08:06:33.334Z,20.35
2016-12-26T08:07:13.812Z,20.37
2016-12-26T08:07:54.299Z,20.48
2016-12-26T08:08:34.789Z,20.44
2016-12-26T08:09:15.279Z,20.51
2016-12-26T08:09:55.780Z,20.4
2016-12-26T08:10:36.272Z,20.37
2016-12-26T08:11:16.766Z,20.44
2016-12-26T08:11:57.260Z,20.4
2016-12-26T08:12:37.760Z,20.46
2016-12-26T08:13:18.263Z,20.34
2016-12-26T08:13:58.744Z,20.35
2016-12-26T08:14:39.232Z,20.48
2016-12-26T08:15:19.722Z,20.35
2016-12-26T08:16:00.223Z,20.38
2016-12-26T08:16:40.712Z,20.38
2016-12-26T08:17:21.207Z,20.44
2016-12-26T08:18:01.700Z,20.34
2016-12-26T08:18:42.197Z,20.38
2016-12-26T08:19:22.700Z,20.34
2016-12-26T08:20:03.189Z,20.46
2016-12-26T08:20:43.673Z,20.46
2016-12-26T08:21:24.159Z,20.41
2016-12-26T08:22:04.667Z,20.4
2016-12-26T08:22:45.157Z,20.37
2016-12-26T08:23:25.652Z,20.46
2016-12-26T08:24:06.144Z,20.38
2016-12-26T08:24:46.631Z,20.44
2016-12-26T08:25:27.119Z,20.41
2016-12-26T08:26:07.619Z,20.44
2016-12-26T08:26:48.118Z,20.44
2016-12-26T08:27:28.607Z,20.46
2016-12-26T08:28:09.117Z,20.4
2016-12-26T08:28:49.613Z,20.38
2016-12-26T08:29:30.109Z,20.35
2016-12-26T08:30:10.597Z,20.48
2016-12-26T08:30:51.092Z,20.38
2016-12-26T08:31:31.583Z,20.46
2016-12-26T08:32:12.077Z,20.38
2016-12-26T08:32:52.571Z,20.38
2016-12-26T08:33:33.077Z,20.44
2016-12-26T08:34:13.578Z,20.44
2016-12-26T08:34:54.073Z,20.46
2016-12-26T08:35:34.582Z,20.37
2016-12-26T08:36:15.076Z,20.46
2016-12-26T08:36:55.559Z,20.32
2016-12-26T08:37:36.484Z,20.42
2016-12-26T08:38:16.986Z,20.46
2016-12-26T08:38:57.493Z,20.41
2016-12-26T08:39:37.990Z,20.38
2016-12-26T08:40:18.478Z,20.32
2016-12-26T08:40:58.963Z,20.37
2016-12-26T08:41:39.444Z,20.37
2016-12-26T08:42:19.937Z,20.35
2016-12-26T08:43:00.432Z,20.41
2016-12-26T08:43:40.921Z,20.44
2016-12-26T08:44:21.408Z,20.44
2016-12-26T08:45:01.891Z,20.4
2016-12-26T08:45:42.385Z,20.37
2016-12-26T08:46:22.883Z,20.38
2016-12-26T08:47:03.366Z,20.38
2016-12-26T08:47:43.854Z,20.38
2016-12-26T08:48:24.339Z,20.38
2016-12-26T08:49:04.837Z,20.4
2016-12-26T08:49:45.327Z,20.35
2016-12-26T08:50:25.811Z,20.42